Weather reports worldwide

Advertisment
Glasgow/Intl, United Kingdom (3140): temperature & dewpoint: 12.01.2018 13:00:00 - 18.01.2018 13:00:00 (GMT)Glasgow/Intl, United Kingdom (3140): wind speed: 12.01.2018 13:00:00 - 18.01.2018 13:00:00 (GMT)Glasgow/Intl, United Kingdom (3140): wind direction: 12.01.2018 13:00:00 - 18.01.2018 13:00:00 (GMT)Glasgow/Intl, United Kingdom (3140): visibility: 12.01.2018 13:00:00 - 18.01.2018 13:00:00 (GMT)
Date & Time tt [°C] td [°C] ff [km/h] ff [kn] dd vv [km]
18.01.2018 13:00:00 1,0 1,0 9 5 WSW 5
18.01.2018 12:00:00 3,0 1,0 4 2 - 10
18.01.2018 11:00:00 3,0 1,0 13 7 WSW 10
18.01.2018 10:00:00 2,0 1,0 4 2 - 10
18.01.2018 09:00:00 1,0 0,0 5 3 - 10
18.01.2018 08:00:00 1,0 0,0 8 4 WSW 10
18.01.2018 07:00:00 2,0 1,0 15 8 W 10
18.01.2018 06:00:00 2,0 0,0 9 5 WSW 10
18.01.2018 05:00:00 2,0 0,0 11 6 WSW 10
18.01.2018 04:00:00 1,0 0,0 11 6 WSW 10
18.01.2018 03:00:00 1,0 0,0 11 6 WSW 10
18.01.2018 02:00:00 1,0 0,0 5 3 W 10
18.01.2018 01:00:00 1,0 1,0 4 2 N 10
18.01.2018 00:00:00 1,0 0,0 5 3 E 10
17.01.2018 23:00:00 2,0 0,0 5 3 - 10
17.01.2018 22:00:00 3,0 1,0 13 7 SSW 10
17.01.2018 21:00:00 3,0 1,0 11 6 SSW 10
17.01.2018 20:00:00 3,0 1,0 18 10 SSW 10
17.01.2018 19:00:00 3,0 0,0 28 15 SW 10
17.01.2018 18:00:00 3,0 0,0 15 8 SSW 10
17.01.2018 17:00:00 3,0 0,0 9 5 S 10
17.01.2018 16:00:00 2,0 0,0 11 6 SW 10
17.01.2018 15:00:00 2,0 1,0 8 4 S 10
17.01.2018 14:00:00 4,0 0,0 22 12 W 10
17.01.2018 13:00:00 3,0 1,0 21 11 WSW 10
17.01.2018 12:00:00 4,0 0,0 26 14 W 10
17.01.2018 11:00:00 3,0 1,0 22 12 WSW 9
17.01.2018 10:00:00 3,0 0,0 28 15 WSW 10
17.01.2018 09:00:00 2,0 0,0 29 16 WSW 10
17.01.2018 08:00:00 2,0 0,0 18 10 WSW 8
17.01.2018 07:00:00 2,0 -1,0 9 5 W 10
17.01.2018 06:00:00 2,0 -1,0 22 12 W 10
17.01.2018 05:00:00 2,0 0,0 21 11 W 10
17.01.2018 04:00:00 2,0 0,0 26 14 W 8
17.01.2018 03:00:00 1,0 0,0 8 4 W 10
17.01.2018 02:00:00 0,0 0,0 11 6 W 10
17.01.2018 01:00:00 0,0 0,0 11 6 WNW 10
17.01.2018 00:00:00 -1,0 -1,0 5 3 - 10
16.01.2018 23:00:00 0,0 0,0 21 11 SW 1,0
16.01.2018 22:00:00 0,0 0,0 26 14 WSW 2,0
16.01.2018 21:00:00 0,0 0,0 15 8 S 10
16.01.2018 20:00:00 0,0 0,0 15 8 WSW 10
16.01.2018 19:00:00 1,0 -1,0 13 7 WSW 10
16.01.2018 18:00:00 1,0 0,0 13 7 W 10
16.01.2018 17:00:00 1,0 -1,0 24 13 WSW 10
16.01.2018 16:00:00 1,0 0,0 21 11 WSW 3,0
16.01.2018 15:00:00 1,0 0,0 18 10 WSW 6
16.01.2018 14:00:00 1,0 0,0 31 17 SW 7
16.01.2018 13:00:00 2,0 0,0 31 17 WSW 10
16.01.2018 12:00:00 1,0 -1,0 29 16 SW 10
16.01.2018 11:00:00 2,0 0,0 34 18 WSW 10
16.01.2018 10:00:00 2,0 0,0 24 13 WSW 10
16.01.2018 09:00:00 1,0 0,0 13 7 SW 10
16.01.2018 08:00:00 1,0 0,0 16 9 WSW 9
16.01.2018 07:00:00 1,0 0,0 21 11 WSW 10
16.01.2018 06:00:00 2,0 0,0 13 7 W 10
16.01.2018 05:00:00 1,0 0,0 18 10 SW 7
16.01.2018 04:00:00 0,0 0,0 11 6 SW 7
16.01.2018 03:00:00 1,0 0,0 15 8 WSW 6
16.01.2018 02:00:00 2,0 0,0 16 9 WSW 10
16.01.2018 01:00:00 1,0 0,0 11 6 S 10
16.01.2018 00:00:00 1,0 0,0 9 5 WSW 10
15.01.2018 23:00:00 2,0 1,0 18 10 SW 10
15.01.2018 22:00:00 2,0 1,0 16 9 SW 10
15.01.2018 21:00:00 3,0 1,0 9 5 WSW 10
15.01.2018 20:00:00 2,0 1,0 8 4 WSW 10
15.01.2018 19:00:00 2,0 0,0 8 4 SW 10
15.01.2018 18:00:00 3,0 2,0 13 7 W 9
15.01.2018 17:00:00 3,0 2,0 22 12 WSW 7
15.01.2018 16:00:00 4,0 2,0 13 7 W 9
15.01.2018 15:00:00 4,0 1,0 18 10 WSW 10
15.01.2018 14:00:00 5,0 2,0 22 12 WSW 10
15.01.2018 13:00:00 5,0 3,0 22 12 WSW 10
15.01.2018 12:00:00 6,0 4,0 26 14 WSW 10
15.01.2018 11:00:00 5,0 3,0 16 9 SW 10
15.01.2018 10:00:00 5,0 4,0 9 5 W 10
15.01.2018 09:00:00 5,0 4,0 21 11 SW 10
15.01.2018 08:00:00 5,0 4,0 13 7 WSW 10
15.01.2018 07:00:00 6,0 5,0 18 10 W 7
15.01.2018 06:00:00 6,0 5,0 16 9 SW 10
15.01.2018 05:00:00 7,0 5,0 21 11 WSW 10
15.01.2018 04:00:00 8,0 6,0 21 11 WSW 10
15.01.2018 03:00:00 8,0 6,0 24 13 SW 10
15.01.2018 02:00:00 8,0 6,0 31 17 SW 10
15.01.2018 01:00:00 9,0 8,0 31 17 SW 6
15.01.2018 00:00:00 8,0 7,0 41 22 SSW 6
14.01.2018 23:00:00 8,0 7,0 42 23 SSW 2,7
14.01.2018 22:00:00 7,0 6,0 39 21 SSW 4,8
14.01.2018 21:00:00 7,0 5,0 41 22 S 5
14.01.2018 20:00:00 7,0 5,0 39 21 SSW 8
14.01.2018 19:00:00 6,0 5,0 41 22 SSW 4,2
14.01.2018 18:00:00 6,0 4,0 50 27 SSW 4,1
14.01.2018 17:00:00 8,0 4,0 35 19 S 7
14.01.2018 16:00:00 8,0 4,0 39 21 SSW 10
14.01.2018 15:00:00 8,0 4,0 31 17 S 10
14.01.2018 14:00:00 8,0 5,0 37 20 SSW 10
14.01.2018 13:00:00 8,0 5,0 24 13 S 10
14.01.2018 12:00:00 7,0 4,0 22 12 S 10
14.01.2018 11:00:00 7,0 4,0 24 13 S 10
14.01.2018 10:00:00 6,0 4,0 28 15 S 10
14.01.2018 09:00:00 5,0 4,0 22 12 SSE 9
14.01.2018 08:00:00 5,0 4,0 18 10 SE 10
14.01.2018 07:00:00 5,0 4,0 18 10 SSE 5
14.01.2018 06:00:00 6,0 4,0 18 10 SSE 5
14.01.2018 05:00:00 6,0 4,0 22 12 SSE 10
14.01.2018 04:00:00 6,0 4,0 18 10 SSE 10
14.01.2018 03:00:00 6,0 4,0 4 2 - 10
14.01.2018 02:00:00 6,0 4,0 8 4 ENE 10
14.01.2018 01:00:00 6,0 4,0 2 1 - 10
14.01.2018 00:00:00 6,0 4,0 18 10 SSE 10
13.01.2018 23:00:00 6,0 4,0 18 10 SSE 10
13.01.2018 22:00:00 5,0 4,0 9 5 ESE 10
13.01.2018 21:00:00 5,0 4,0 9 5 ESE 10
13.01.2018 20:00:00 5,0 4,0 8 4 E 7
13.01.2018 19:00:00 5,0 4,0 9 5 NE 5
13.01.2018 18:00:00 5,0 3,0 9 5 ENE 8
13.01.2018 17:00:00 5,0 3,0 15 8 E 9
13.01.2018 16:00:00 5,0 3,0 15 8 E 9
13.01.2018 15:00:00 5,0 3,0 11 6 ENE 8
13.01.2018 14:00:00 5,0 3,0 11 6 E 6
13.01.2018 13:00:00 6,0 3,0 15 8 E 10
13.01.2018 12:00:00 6,0 3,0 11 6 ENE 10
13.01.2018 11:00:00 5,0 2,0 16 9 ENE 9
13.01.2018 10:00:00 5,0 2,0 13 7 E 9
13.01.2018 09:00:00 4,0 2,0 13 7 ENE 8
13.01.2018 08:00:00 4,0 2,0 16 9 NE 7
13.01.2018 07:00:00 4,0 1,0 11 6 E 9
13.01.2018 06:00:00 4,0 1,0 18 10 NE 9
13.01.2018 05:00:00 4,0 1,0 18 10 ENE 10
13.01.2018 04:00:00 4,0 1,0 15 8 E 10
13.01.2018 03:00:00 4,0 1,0 18 10 ENE 10
13.01.2018 02:00:00 4,0 1,0 8 4 E 10
13.01.2018 01:00:00 4,0 1,0 15 8 E 10
13.01.2018 00:00:00 4,0 2,0 18 10 E 10
12.01.2018 23:00:00 3,0 1,0 15 8 ENE 10
12.01.2018 22:00:00 3,0 1,0 11 6 ENE 10
12.01.2018 21:00:00 4,0 1,0 15 8 ENE 10
12.01.2018 20:00:00 4,0 2,0 15 8 E 10
12.01.2018 19:00:00 4,0 1,0 15 8 E 10
12.01.2018 18:00:00 5,0 2,0 13 7 E 10
12.01.2018 17:00:00 5,0 2,0 13 7 ESE 10
12.01.2018 16:00:00 5,0 2,0 13 7 E 10
12.01.2018 15:00:00 6,0 2,0 13 7 ESE 10
12.01.2018 14:00:00 7,0 3,0 18 10 SE 10
12.01.2018 13:00:00 6,0 3,0 11 6 E 10

tt = temperature
td = dewpoint
ff = wind speed
dd = wind direction
vv = visibility

Next stations